KISO/ISO METAR and TAF weather

Enter ICAO airport designator
Station Type Date Time Source
KISO METAR 2021/07/24 20:56 UTC NOAA

KISO 242056Z 13006KT 10SM CLR 30/17 A3009


Station Type Date Time Source
KISO Decoded METAR 2021/07/24 20:56 UTC NOAA

Kinston, Kinston Regional Jetport at Stallings Field, NC, United States (KISO) 35-20N 077-37W
Jul 24, 2021 - 04:56 PM EDT / 2021.07.24 2056 UTC
Wind: from the SE (130 degrees) at 7 MPH (6 KT):0
Visibility: 10 mile(s):0
Sky conditions: clear
Temperature: 86 F (30 C)
Dew Point: 62 F (17 C)
Relative Humidity: 45%
Pressure (altimeter): 30.09 in. Hg (1018 hPa)
ob: KISO 242056Z 13006KT 10SM CLR 30/17 A3009
cycle: 21

Station Type Date Time Source
KISO TAF 2021/07/24 18:22 UTC NOAA

TAF KISO 241720Z 2418/2518 09004KT P6SM FEW250
FM251400 18005KT P6SM SCT250
AMD LTD TO CLD VIS AND WIND

Example: see airport list